Time;durP1;ratioP1;P1;durP2;ratioP2;P2;SDS_P1;SDS_P2;PMS_P1;PMS_P2;Temp;Humidity;BMP_temperature;BMP_pressure;BME280_temperature;BME280_humidity;BME280_pressure;Samples;Min_cycle;Max_cycle;Signal;HPM_P1;HPM_P2
2022/12/23 00:00:20;;;;;;;;;0.00;0.00;;;;;12.02;100.00;99865.38;4943722;28;45765;-92
2022/12/23 00:02:46;;;;;;;;;0.00;0.00;;;;;11.31;100.00;99751.44;4942154;28;45401;-91
2022/12/23 00:05:12;;;;;;;;;0.25;0.00;;;;;12.66;100.00;99973.34;4897508;28;1406919;-89
2022/12/23 00:07:40;;;;;;;;;0.00;0.00;;;;;12.09;100.00;99877.47;4929597;28;48118;-88
2022/12/23 00:10:07;;;;;;;;;0.00;0.00;;;;;13.00;100.00;100040.16;4964222;28;45939;-89
2022/12/23 00:15:20;;;;;;;;;0.00;0.00;;;;;12.70;100.00;99982.06;4982481;28;45373;-91
2022/12/23 00:17:46;;;;;;;;;0.00;0.00;;;;;11.74;100.00;99824.00;4989229;28;47273;-92
2022/12/23 00:20:13;;;;;;;;;0.00;0.00;;;;;11.52;100.00;99782.44;4982106;28;45864;-91
2022/12/23 00:25:39;;;;;;;;;0.00;0.00;;;;;12.72;100.00;99996.13;4987128;28;44826;-91
2022/12/23 00:28:20;;;;;;;;;0.00;0.00;;;;;11.75;100.00;99831.00;4992943;28;47562;-89
2022/12/23 00:30:57;;;;;;;;;1.00;0.00;;;;;12.75;100.00;99993.34;4970499;28;45452;-91
2022/12/23 00:33:24;;;;;;;;;0.00;0.00;;;;;11.38;100.00;99776.75;4965743;28;45304;-92
2022/12/23 00:35:51;;;;;;;;;0.50;0.50;;;;;11.67;100.00;99835.72;4969385;28;45284;-92
2022/12/23 00:50:51;;;;;;;;;0.00;0.00;;;;;11.52;100.00;99816.84;4984576;28;45297;-92
2022/12/23 00:53:19;;;;;;;;;0.00;0.00;;;;;12.94;100.00;100052.72;4981331;28;45421;-91
2022/12/23 00:55:46;;;;;;;;;0.00;0.00;;;;;11.96;100.00;99886.78;4969673;28;45573;-92
2022/12/23 00:58:13;;;;;;;;;0.00;0.00;;;;;12.93;100.00;100063.41;4964945;28;44897;-91
2022/12/23 01:06:07;;;;;;;;;0.00;0.00;;;;;11.39;100.00;99818.19;4987366;28;45410;-91
2022/12/23 01:08:33;;;;;;;;;0.00;0.00;;;;;11.99;100.00;99916.66;4991298;28;45609;-90
2022/12/23 01:11:04;;;;;;;;;0.00;0.00;;;;;12.89;100.00;100083.88;4981390;28;45430;-91
2022/12/23 01:13:29;;;;;;;;;0.00;0.00;;;;;12.05;100.00;99934.97;4963326;28;45422;-91
2022/12/23 01:16:03;;;;;;;;;0.00;0.00;;;;;11.35;100.00;99820.06;4971913;28;45327;-91
2022/12/23 01:18:29;;;;;;;;;0.00;0.00;;;;;12.87;100.00;100069.78;4946588;28;45385;-90
2022/12/23 01:20:55;;;;;;;;;0.00;0.00;;;;;12.88;100.00;100071.53;4950392;28;46503;-90
2022/12/23 01:23:20;;;;;;;;;0.00;0.00;;;;;12.88;100.00;100082.16;4966180;28;45286;-91
2022/12/23 01:25:47;;;;;;;;;0.00;0.00;;;;;11.84;100.00;99912.75;4962152;28;45304;-91
2022/12/23 01:28:12;;;;;;;;;0.00;0.00;;;;;11.85;100.00;99903.88;4942661;28;45522;-92
2022/12/23 01:30:38;;;;;;;;;0.00;0.00;;;;;11.46;100.00;99842.63;4942362;28;47211;-91
2022/12/23 01:33:04;;;;;;;;;0.00;0.00;;;;;11.97;100.00;99934.38;4951105;28;45441;-90
2022/12/23 01:35:29;;;;;;;;;0.00;0.00;;;;;11.29;100.00;99809.69;4953707;28;45575;-90
2022/12/23 01:37:55;;;;;;;;;0.00;0.00;;;;;11.91;100.00;99910.75;4949445;28;45521;-91
2022/12/23 01:40:20;;;;;;;;;0.00;0.00;;;;;12.23;100.00;99967.88;4945637;28;47626;-90
2022/12/23 01:42:46;;;;;;;;;0.25;0.25;;;;;12.20;100.00;99967.97;4943712;28;45357;-91
2022/12/23 01:45:20;;;;;;;;;0.00;0.00;;;;;12.90;100.00;100072.34;4952128;28;45208;-91
2022/12/23 01:47:57;;;;;;;;;0.00;0.00;;;;;12.53;100.00;100012.72;4949268;28;45526;-90
2022/12/23 01:50:35;;;;;;;;;0.25;0.00;;;;;12.59;100.00;100024.91;4968234;28;45379;-90
2022/12/23 01:53:22;;;;;;;;;1.00;0.00;;;;;11.43;100.00;99848.03;4944514;28;45359;-90
2022/12/23 01:55:58;;;;;;;;;0.00;0.00;;;;;12.90;100.00;100076.78;4964863;28;45493;-90
2022/12/23 01:58:40;;;;;;;;;0.00;0.00;;;;;12.91;100.00;100075.88;4950810;28;44859;-90
2022/12/23 02:03:55;;;;;;;;;0.00;0.00;;;;;12.60;100.00;100019.53;4944228;28;45375;-90
2022/12/23 02:09:33;;;;;;;;;0.00;0.00;;;;;12.17;100.00;99960.16;4962205;28;45443;-90
2022/12/23 02:12:30;;;;;;;;;0.25;0.25;;;;;12.91;100.00;100084.69;4960880;28;47078;-90
2022/12/23 02:18:16;;;;;;;;;0.00;0.00;;;;;12.93;100.00;100079.31;4946161;28;45472;-90
2022/12/23 02:21:31;;;;;;;;;2.00;0.00;;;;;12.42;100.00;99977.81;4954556;28;45432;-90
2022/12/23 02:24:27;;;;;;;;;0.25;0.25;;;;;12.93;100.00;100066.06;4853232;29;48416;-91
2022/12/23 02:26:55;;;;;;;;;0.75;0.75;;;;;12.64;100.00;100008.81;4863110;29;45993;-91
2022/12/23 02:29:28;;;;;;;;;0.75;0.75;;;;;12.91;100.00;100058.16;4844813;29;45393;-91
2022/12/23 02:31:56;;;;;;;;;2.00;0.75;;;;;12.91;100.00;100059.97;4875347;29;45487;-90
2022/12/23 02:34:30;;;;;;;;;0.00;0.00;;;;;12.91;100.00;100059.97;4848056;29;46450;-91
2022/12/23 02:37:09;;;;;;;;;0.25;0.25;;;;;12.93;100.00;100060.75;4852451;29;45393;-91
2022/12/23 02:39:41;;;;;;;;;0.25;0.25;;;;;12.19;100.00;99939.78;4849343;29;45372;-91
2022/12/23 02:42:15;;;;;;;;;1.50;1.50;;;;;12.91;100.00;100082.03;4845533;29;45498;-90
2022/12/23 02:44:57;;;;;;;;;0.50;0.00;;;;;12.72;100.00;100043.84;4863653;29;47226;-90
2022/12/23 02:47:32;;;;;;;;;0.25;0.25;;;;;12.05;100.00;99932.31;4869690;29;44844;-91
2022/12/23 02:50:05;;;;;;;;;1.00;0.50;;;;;12.89;100.00;100067.09;4855633;29;45369;-91
2022/12/23 02:52:34;;;;;;;;;0.25;0.25;;;;;12.40;100.00;99998.19;4839169;29;45363;-91
2022/12/23 02:55:08;;;;;;;;;1.25;0.25;;;;;11.20;100.00;99789.75;4905966;28;47879;-91
2022/12/23 02:57:37;;;;;;;;;1.25;0.25;;;;;12.22;100.00;99952.03;4941185;28;45419;-90
2022/12/23 03:00:05;;;;;;;;;1.00;1.00;;;;;11.87;100.00;99903.81;4941666;28;45422;-91
2022/12/23 03:02:33;;;;;;;;;1.00;1.00;;;;;12.32;100.00;99994.97;4955082;28;45649;-91
2022/12/23 03:04:58;;;;;;;;;0.75;0.75;;;;;11.81;100.00;99919.94;4947053;28;47569;-91
2022/12/23 03:07:35;;;;;;;;;1.75;1.75;;;;;12.34;100.00;99986.03;4949431;28;44816;-90
2022/12/23 03:10:13;;;;;;;;;1.00;0.25;;;;;12.80;100.00;100076.28;4950713;28;45590;-91
2022/12/23 03:13:20;;;;;;;;;1.25;1.00;;;;;12.00;100.00;99939.56;4959970;28;45596;-91
2022/12/23 03:16:03;;;;;;;;;1.50;0.00;;;;;12.44;100.00;100011.28;4968716;28;45691;-91
2022/12/23 03:19:06;;;;;;;;;0.25;0.25;;;;;12.74;100.00;100057.94;4946693;28;45280;-90
2022/12/23 03:21:47;;;;;;;;;3.00;1.00;;;;;12.73;100.00;100053.56;4949410;28;45512;-90
2022/12/23 03:24:36;;;;;;;;;0.75;0.75;;;;;12.73;100.00;100045.59;4948169;28;45310;-92
2022/12/23 03:27:42;;;;;;;;;0.25;0.25;;;;;11.96;100.00;99929.16;4925737;28;46298;-90
2022/12/23 03:30:16;;;;;;;;;0.00;0.00;;;;;12.33;100.00;99994.91;4922675;28;45864;-91
2022/12/23 03:32:48;;;;;;;;;0.75;0.75;;;;;11.49;100.00;99868.97;4951014;28;45437;-91
2022/12/23 03:35:20;;;;;;;;;0.00;0.00;;;;;12.66;100.00;100044.94;4953410;28;45350;-90
2022/12/23 03:37:49;;;;;;;;;1.00;1.00;;;;;11.69;100.00;99897.38;4973709;28;47521;-91
2022/12/23 03:40:38;;;;;;;;;0.00;0.00;;;;;12.66;100.00;100065.28;4969770;28;45420;-91
2022/12/23 03:43:11;;;;;;;;;1.75;1.00;;;;;12.67;100.00;100061.72;4926803;28;44823;-91
2022/12/23 03:45:46;;;;;;;;;0.00;0.00;;;;;12.07;100.00;99974.63;4902858;29;45442;-91
2022/12/23 03:48:34;;;;;;;;;1.00;1.00;;;;;11.66;100.00;99886.91;4900941;29;47158;-92
2022/12/23 03:51:08;;;;;;;;;1.00;1.00;;;;;12.64;100.00;100052.09;4900956;28;45440;-91
2022/12/23 03:53:49;;;;;;;;;1.00;0.00;;;;;12.62;100.00;100059.25;4911071;28;45532;-91
2022/12/23 03:56:29;;;;;;;;;1.75;1.00;;;;;12.62;100.00;100059.25;4889785;29;45394;-92
2022/12/23 03:58:59;;;;;;;;;1.00;1.00;;;;;12.58;100.00;100058.47;4890245;29;48359;-90
2022/12/23 04:01:40;;;;;;;;;0.50;0.50;;;;;12.23;100.00;100015.56;4905840;29;45961;-91
2022/12/23 04:04:26;;;;;;;;;0.00;0.00;;;;;12.37;100.00;100022.16;4897936;29;45325;-91
2022/12/23 04:07:09;;;;;;;;;0.00;0.00;;;;;12.04;100.00;99956.22;4896170;29;45590;-90
2022/12/23 04:09:36;;;;;;;;;2.00;1.00;;;;;11.68;100.00;99895.69;4897040;29;46308;-91
2022/12/23 04:12:02;;;;;;;;;1.00;0.00;;;;;11.85;100.00;99914.47;4903244;29;45439;-90
2022/12/23 04:14:28;;;;;;;;;1.00;1.00;;;;;12.03;100.00;99949.22;4903824;28;45443;-91
2022/12/23 04:16:57;;;;;;;;;1.00;1.00;;;;;12.59;100.00;100041.66;4916355;28;45499;-91
2022/12/23 04:19:24;;;;;;;;;1.00;1.00;;;;;12.14;100.00;99967.34;4914330;28;47193;-91
2022/12/23 04:21:49;;;;;;;;;1.00;1.00;;;;;11.84;100.00;99907.47;4945866;28;45316;-91
2022/12/23 04:24:15;;;;;;;;;0.00;0.00;;;;;10.71;100.00;99725.31;4942195;28;45394;-91
2022/12/23 04:26:42;;;;;;;;;2.00;1.00;;;;;11.95;100.00;99959.19;4930048;28;45464;-90
2022/12/23 04:29:07;;;;;;;;;0.50;0.50;;;;;11.55;100.00;99900.53;4964537;28;46537;-91
2022/12/23 04:31:32;;;;;;;;;1.00;1.00;;;;;12.18;100.00;99995.47;4946388;28;45452;-91
2022/12/23 04:33:58;;;;;;;;;1.00;1.00;;;;;11.94;100.00;99965.44;4950489;28;45299;-90
2022/12/23 04:36:23;;;;;;;;;1.00;1.00;;;;;11.33;100.00;99858.09;4953510;28;45329;-91
2022/12/23 04:38:50;;;;;;;;;1.00;1.00;;;;;11.46;100.00;99879.69;4967689;28;47260;-91
2022/12/23 04:41:16;;;;;;;;;1.25;0.75;;;;;11.32;100.00;99861.63;4959510;28;45514;-92
2022/12/23 04:43:41;;;;;;;;;0.50;0.50;;;;;11.97;100.00;99958.22;4970901;28;44928;-91
2022/12/23 04:46:07;;;;;;;;;1.00;1.00;;;;;11.78;100.00;99917.38;4969172;28;46105;-90
2022/12/23 04:48:32;;;;;;;;;1.00;1.00;;;;;12.14;100.00;99962.06;4958560;28;46316;-90
2022/12/23 04:51:01;;;;;;;;;1.00;1.00;;;;;11.66;100.00;99882.50;4950924;28;45272;-92
2022/12/23 04:53:27;;;;;;;;;1.00;1.00;;;;;11.94;100.00;99921.25;4983481;28;45371;-91
2022/12/23 04:55:52;;;;;;;;;1.00;1.00;;;;;11.70;100.00;99904.44;4982436;28;45572;-92
2022/12/23 04:58:20;;;;;;;;;1.00;1.00;;;;;11.70;100.00;99877.97;4985613;28;45206;-90
2022/12/23 05:00:46;;;;;;;;;1.75;1.00;;;;;11.46;100.00;99834.69;4967804;28;45440;-91
2022/12/23 05:03:11;;;;;;;;;3.50;2.00;;;;;11.82;100.00;99909.28;4965820;28;45341;-90
2022/12/23 05:05:42;;;;;;;;;1.50;1.50;;;;;11.59;100.00;99870.41;4972547;28;45273;-92
2022/12/23 05:08:08;;;;;;;;;1.00;1.00;;;;;11.01;100.00;99768.34;4981179;28;47320;-91
2022/12/23 05:10:34;;;;;;;;;4.50;2.00;;;;;12.15;100.00;99954.06;4964350;28;45868;-91
2022/12/23 05:12:59;;;;;;;;;1.00;1.00;;;;;12.44;100.00;100003.31;4956006;28;45370;-90
2022/12/23 05:15:25;;;;;;;;;2.00;1.00;;;;;11.83;100.00;99895.13;4944971;28;45465;-91
2022/12/23 05:17:50;;;;;;;;;2.00;1.00;;;;;11.40;100.00;99843.69;4960886;28;46730;-91
2022/12/23 05:20:16;;;;;;;;;3.00;0.75;;;;;12.19;100.00;99962.75;4964657;28;45364;-91
2022/12/23 05:22:42;;;;;;;;;1.00;1.00;;;;;11.35;100.00;99819.19;4962360;28;45417;-91
2022/12/23 05:25:09;;;;;;;;;0.50;0.50;;;;;12.31;100.00;99974.69;4946196;28;45623;-90
2022/12/23 05:27:35;;;;;;;;;2.00;2.00;;;;;12.61;100.00;100018.59;4963890;28;46360;-91
2022/12/23 05:30:01;;;;;;;;;1.75;1.75;;;;;12.13;100.00;99940.00;4963719;28;45452;-90
2022/12/23 05:32:27;;;;;;;;;0.25;0.00;;;;;11.41;100.00;99816.34;4981852;28;44741;-91
2022/12/23 05:34:52;;;;;;;;;1.25;1.25;;;;;11.76;100.00;99863.66;4989246;28;45471;-91
2022/12/23 05:37:19;;;;;;;;;0.75;0.75;;;;;11.76;100.00;99863.66;4985036;28;49015;-91
2022/12/23 05:39:44;;;;;;;;;3.50;1.00;;;;;12.26;100.00;99948.34;4967152;28;45405;-91
2022/12/23 05:42:10;;;;;;;;;2.00;1.00;;;;;11.94;100.00;99904.50;4964766;28;45494;-91
2022/12/23 05:44:35;;;;;;;;;2.50;1.00;;;;;12.36;100.00;99963.00;4943795;28;45588;-90
2022/12/23 05:47:01;;;;;;;;;1.25;1.25;;;;;12.29;100.00;99948.25;4947599;28;45488;-91
2022/12/23 05:49:27;;;;;;;;;1.00;1.00;;;;;11.82;100.00;99851.03;4977895;28;45563;-90
2022/12/23 05:51:52;;;;;;;;;2.25;2.00;;;;;12.11;100.00;99893.31;4986031;28;45425;-91
2022/12/23 05:54:18;;;;;;;;;4.75;3.00;;;;;11.69;100.00;99823.28;4982946;28;45520;-91
2022/12/23 05:56:44;;;;;;;;;2.25;2.25;;;;;12.66;100.00;99976.00;4964268;28;47011;-91
2022/12/23 05:59:10;;;;;;;;;3.00;3.00;;;;;12.30;100.00;99919.94;4949395;28;45416;-91
2022/12/23 06:01:36;;;;;;;;;2.00;2.00;;;;;11.65;100.00;99816.38;4954244;28;45375;-91
2022/12/23 06:04:02;;;;;;;;;2.00;2.00;;;;;12.65;100.00;99990.22;4971903;28;44919;-90
2022/12/23 06:06:27;;;;;;;;;1.00;1.00;;;;;12.33;100.00;99925.13;4962560;28;47218;-90
2022/12/23 06:08:53;;;;;;;;;2.00;2.00;;;;;11.56;100.00;99805.19;4942375;28;45416;-89
2022/12/23 06:11:18;;;;;;;;;2.00;2.00;;;;;11.77;100.00;99837.13;4961915;28;45811;-90
2022/12/23 06:13:44;;;;;;;;;0.00;0.00;;;;;11.34;100.00;99767.19;4964382;28;45656;-90
2022/12/23 06:16:09;;;;;;;;;2.50;1.25;;;;;11.30;100.00;99747.94;4980977;28;47405;-91
2022/12/23 06:18:34;;;;;;;;;1.00;1.00;;;;;12.28;100.00;99912.06;4963427;28;45588;-91
2022/12/23 06:21:00;;;;;;;;;1.75;1.75;;;;;11.61;100.00;99801.53;4978624;28;45341;-92
2022/12/23 06:23:25;;;;;;;;;1.00;1.00;;;;;12.55;100.00;99957.88;4945493;28;45477;-91
2022/12/23 06:25:58;;;;;;;;;2.00;2.00;;;;;11.23;100.00;99740.28;4948369;28;46873;-91
2022/12/23 06:28:25;;;;;;;;;2.50;2.00;;;;;12.69;100.00;99985.66;4951082;28;45762;-89
2022/12/23 06:30:55;;;;;;;;;1.00;1.00;;;;;11.91;100.00;99866.59;4951460;28;45333;-92
2022/12/23 06:33:20;;;;;;;;;2.50;2.50;;;;;12.33;100.00;99930.44;4952368;28;45430;-90
2022/12/23 06:35:46;;;;;;;;;2.75;1.50;;;;;12.35;100.00;99908.25;4984393;28;46351;-92
2022/12/23 06:38:14;;;;;;;;;1.75;1.00;;;;;12.05;100.00;99865.25;4963240;28;45493;-90
2022/12/23 06:40:42;;;;;;;;;2.00;0.75;;;;;12.73;100.00;99982.81;4961206;28;45498;-90
2022/12/23 06:43:10;;;;;;;;;0.50;0.50;;;;;11.86;100.00;99810.28;4963387;28;45504;-88
2022/12/23 06:45:35;;;;;;;;;0.00;0.00;;;;;12.77;100.00;99970.31;4945385;28;45273;-91
2022/12/23 06:48:02;;;;;;;;;0.00;0.00;;;;;11.76;100.00;99792.16;4965519;28;45339;-90
2022/12/23 06:50:28;;;;;;;;;1.00;1.00;;;;;12.16;100.00;99848.94;4936512;28;45442;-89
2022/12/23 06:52:53;;;;;;;;;0.00;0.00;;;;;11.39;100.00;99720.28;4946809;28;45489;-92
2022/12/23 06:55:19;;;;;;;;;0.00;0.00;;;;;11.82;100.00;99782.19;4967189;28;45760;-91
2022/12/23 06:57:44;;;;;;;;;1.00;1.00;;;;;12.41;100.00;99880.69;4968098;28;45286;-91
2022/12/23 07:00:10;;;;;;;;;1.00;0.00;;;;;11.90;100.00;99795.16;4966118;28;45423;-91
2022/12/23 07:02:36;;;;;;;;;1.00;1.00;;;;;12.00;100.00;99799.22;4963250;28;45421;-91
2022/12/23 07:05:01;;;;;;;;;0.00;0.00;;;;;11.96;100.00;99773.75;4962087;28;46322;-90
2022/12/23 07:07:27;;;;;;;;;0.00;0.00;;;;;11.78;100.00;99756.78;4960496;28;44765;-91
2022/12/23 07:09:52;;;;;;;;;0.00;0.00;;;;;12.53;100.00;99869.59;4943911;28;45389;-91
2022/12/23 07:12:18;;;;;;;;;0.00;0.00;;;;;12.54;100.00;99857.19;4946508;28;45512;-91
2022/12/23 07:14:43;;;;;;;;;0.00;0.00;;;;;12.81;100.00;99916.22;4964609;28;47910;-90
2022/12/23 07:17:09;;;;;;;;;1.00;1.00;;;;;11.85;100.00;99749.44;4966529;28;45363;-92
2022/12/23 07:19:44;;;;;;;;;0.00;0.00;;;;;12.00;100.00;99777.16;4944697;28;45521;-91
2022/12/23 07:22:09;;;;;;;;;0.00;0.00;;;;;12.39;100.00;99830.38;4968333;28;45457;-90
2022/12/23 07:24:37;;;;;;;;;0.00;0.00;;;;;11.77;100.00;99717.97;4947806;28;46584;-91
2022/12/23 07:27:06;;;;;;;;;0.50;0.00;;;;;11.95;100.00;99750.88;4961470;28;45513;-92
2022/12/23 07:29:31;;;;;;;;;0.00;0.00;;;;;12.98;100.00;99916.44;4946490;28;45473;-91
2022/12/23 07:31:57;;;;;;;;;0.00;0.00;;;;;13.02;100.00;99916.31;4956858;28;45397;-91
2022/12/23 07:34:24;;;;;;;;;1.00;0.00;;;;;12.67;100.00;99865.53;4979359;28;46970;-90
2022/12/23 07:36:53;;;;;;;;;0.00;0.00;;;;;12.64;100.00;99849.75;4994765;28;45634;-92
2022/12/23 07:39:19;;;;;;;;;0.00;0.00;;;;;12.33;100.00;99805.91;4987332;28;45445;-94
2022/12/23 07:41:45;;;;;;;;;0.00;0.00;;;;;12.45;100.00;99813.38;4966964;28;45003;-93
2022/12/23 07:44:10;;;;;;;;;0.00;0.00;;;;;12.77;100.00;99872.22;4963683;28;48172;-92
2022/12/23 07:46:40;;;;;;;;;0.00;0.00;;;;;13.07;100.00;99928.47;4968084;28;45365;-92
2022/12/23 07:49:14;;;;;;;;;0.00;0.00;;;;;12.30;100.00;99787.47;4962177;28;45328;-92
2022/12/23 07:51:40;;;;;;;;;0.00;0.00;;;;;12.39;100.00;99819.78;4936996;28;45608;-91
2022/12/23 07:54:06;;;;;;;;;0.00;0.00;;;;;11.92;100.00;99724.47;4947773;28;46173;-91
2022/12/23 07:56:32;;;;;;;;;1.00;0.50;;;;;12.09;100.00;99750.31;4967158;28;45246;-90
2022/12/23 07:58:57;;;;;;;;;2.00;1.00;;;;;11.90;100.00;99719.25;4966679;28;45348;-92
2022/12/23 08:05:02;;;;;;;;;0.00;0.00;;;;;12.11;100.00;99745.81;4895084;29;45454;-91
2022/12/23 08:07:39;;;;;;;;;0.00;0.00;;;;;13.15;100.00;99905.13;4885118;29;45463;-92
2022/12/23 08:10:07;;;;;;;;;1.00;0.00;;;;;12.46;100.00;99788.59;4869315;29;45471;-92
2022/12/23 08:12:36;;;;;;;;;0.50;0.50;;;;;13.19;100.00;99912.94;4870728;29;45255;-92
2022/12/23 08:15:02;;;;;;;;;0.00;0.00;;;;;12.30;100.00;99774.22;4883941;29;45455;-92
2022/12/23 08:17:29;;;;;;;;;1.00;1.00;;;;;12.52;100.00;99803.41;4870802;29;45530;-91
2022/12/23 08:20:01;;;;;;;;;0.00;0.00;;;;;12.12;100.00;99731.66;4892546;29;45356;-94
2022/12/23 08:22:29;;;;;;;;;0.25;0.25;;;;;12.19;100.00;99733.16;4887146;29;45598;-91
2022/12/23 08:24:55;;;;;;;;;0.00;0.00;;;;;13.24;100.00;99901.22;4894094;29;46894;-94
2022/12/23 08:27:23;;;;;;;;;1.00;1.00;;;;;13.01;100.00;99848.25;4893091;29;45228;-92
2022/12/23 08:29:50;;;;;;;;;2.00;1.00;;;;;12.70;100.00;99802.63;4893991;29;45273;-93
2022/12/23 08:32:15;;;;;;;;;1.00;1.00;;;;;12.93;100.00;99822.91;4895990;29;44893;-94
2022/12/23 08:34:45;;;;;;;;;0.75;0.75;;;;;12.55;100.00;99772.31;4891944;29;46781;-92
2022/12/23 08:37:13;;;;;;;;;0.50;0.50;;;;;11.42;100.00;99563.19;4873707;28;45291;-94
2022/12/23 08:39:42;;;;;;;;;1.00;1.00;;;;;12.06;100.00;99668.34;4961061;28;45358;-92
2022/12/23 08:42:15;;;;;;;;;0.00;0.00;;;;;13.37;100.00;99880.38;4956210;28;45651;-93
2022/12/23 08:44:42;;;;;;;;;0.00;0.00;;;;;13.16;100.00;99839.63;4948305;28;46769;-94
2022/12/23 08:47:17;;;;;;;;;2.00;2.00;;;;;12.91;100.00;99784.97;4938403;28;45289;-93
2022/12/23 08:49:45;;;;;;;;;0.00;0.00;;;;;13.06;100.00;99810.00;4951760;28;45439;-94
2022/12/23 08:56:12;;;;;;;;;0.00;0.00;;;;;13.42;100.00;99853.63;4945840;28;45267;-92
2022/12/23 08:58:53;;;;;;;;;0.00;0.00;;;;;13.42;100.00;99851.84;4948340;28;45437;-93
2022/12/23 09:01:41;;;;;;;;;0.00;0.00;;;;;12.43;100.00;99672.09;4967837;28;45295;-93
2022/12/23 09:04:08;;;;;;;;;0.00;0.00;;;;;12.87;100.00;99756.00;4953843;28;45563;-93
2022/12/23 09:07:01;;;;;;;;;0.00;0.00;;;;;13.47;100.00;99843.69;4951825;28;45348;-93
2022/12/23 09:09:45;;;;;;;;;0.00;0.00;;;;;12.86;100.00;99695.94;4949186;28;45486;-93
2022/12/23 09:12:14;;;;;;;;;0.00;0.00;;;;;13.35;100.00;99740.72;4944702;28;45359;-93
2022/12/23 09:14:47;;;;;;;;;1.00;1.00;;;;;11.49;100.00;99416.50;4969827;28;45250;-93
2022/12/23 09:17:24;;;;;;;;;;;;;;;;;;;;;
2022/12/23 09:19:59;;;;;;;;;0.25;0.00;;;;;11.78;100.00;99441.75;4947881;28;71975;-93
2022/12/23 09:22:48;;;;;;;;;0.00;0.00;;;;;13.12;100.00;99697.47;4947536;28;45311;-93
2022/12/23 09:25:32;;;;;;;;;0.50;0.50;;;;;12.08;100.00;99566.69;4945492;28;45616;-92
2022/12/23 09:28:04;;;;;;;;;0.00;0.00;;;;;12.86;100.00;99696.81;4953733;28;45256;-91
2022/12/23 09:30:37;;;;;;;;;0.25;0.25;;;;;12.36;100.00;99642.38;4967522;28;45318;-93
2022/12/23 09:33:08;;;;;;;;;0.00;0.00;;;;;12.58;100.00;99684.72;4947400;28;45454;-93
2022/12/23 09:36:29;;;;;;;;;0.00;0.00;;;;;13.51;100.00;99829.31;4929150;28;45241;-89
2022/12/23 09:39:05;;;;;;;;;0.00;0.00;;;;;12.85;100.00;99710.13;4931275;28;46311;-90
2022/12/23 09:42:02;;;;;;;;;0.00;0.00;;;;;13.19;100.00;99751.94;4982611;28;45367;-91
2022/12/23 09:45:15;;;;;;;;;0.00;0.00;;;;;12.86;100.00;99728.63;4959946;28;45354;-90
2022/12/23 09:51:39;;;;;;;;;;;;;;;;;;;;;
2022/12/23 09:54:46;;;;;;;;;0.00;0.00;;;;;11.94;100.00;99558.47;4920415;28;72791;-89
2022/12/23 09:58:25;;;;;;;;;;;;;;;;;;;;;
2022/12/23 10:01:33;;;;;;;;;0.00;0.00;;;;;13.66;100.00;99826.03;4846287;29;69836;-90
2022/12/23 10:04:51;;;;;;;;;0.00;0.00;;;;;13.68;100.00;99813.53;4868791;29;48204;-89
2022/12/23 10:08:15;;;;;;;;;;;;;;;;;;;;;
2022/12/23 10:11:19;;;;;;;;;0.00;0.00;;;;;13.78;100.00;99819.28;4853161;29;45487;-88
2022/12/23 10:13:54;;;;;;;;;0.00;0.00;;;;;12.14;100.00;99546.19;4828585;29;45459;-93
2022/12/23 10:43:29;;;;;;;;;0.00;0.00;;;;;13.89;100.00;99799.34;5911905;22;45798;-90
2022/12/23 10:46:23;;;;;;;;;0.00;0.00;;;;;13.91;100.00;99802.78;4938246;28;45538;-93
2022/12/23 10:49:15;;;;;;;;;0.00;0.00;;;;;13.89;100.00;99805.50;4939695;28;45287;-92
2022/12/23 10:51:52;;;;;;;;;0.00;0.00;;;;;13.93;100.00;99804.44;4951950;28;45402;-92
2022/12/23 10:54:28;;;;;;;;;1.00;1.00;;;;;13.62;100.00;99755.41;4949631;28;44820;-91
2022/12/23 10:56:53;;;;;;;;;0.25;0.25;;;;;13.29;100.00;99683.44;4949445;28;45250;-92
2022/12/23 10:59:30;;;;;;;;;0.00;0.00;;;;;13.05;100.00;99632.34;4952471;28;45704;-91
2022/12/23 11:02:30;;;;;;;;;0.00;0.00;;;;;13.85;100.00;99729.56;4945600;28;48292;-93
2022/12/23 11:04:55;;;;;;;;;0.00;0.00;;;;;13.77;100.00;99723.75;4962865;28;45385;-91
2022/12/23 11:07:26;;;;;;;;;0.00;0.00;;;;;14.24;100.00;99810.13;4952282;28;45374;-92
2022/12/23 11:10:00;;;;;;;;;0.00;0.00;;;;;13.31;100.00;99624.03;4948051;28;44910;-92
2022/12/23 11:12:40;;;;;;;;;0.00;0.00;;;;;13.33;100.00;99634.59;4945026;28;47226;-91
2022/12/23 11:15:30;;;;;;;;;0.00;0.00;;;;;14.34;100.00;99806.94;4931050;28;45370;-92
2022/12/23 11:18:16;;;;;;;;;0.00;0.00;;;;;13.33;100.00;99638.13;4954305;28;45297;-94
2022/12/23 11:20:45;;;;;;;;;0.00;0.00;;;;;13.06;100.00;99597.78;4970435;28;45563;-92
2022/12/23 11:23:34;;;;;;;;;0.00;0.00;;;;;14.17;100.00;99798.94;4955704;28;46712;-93
2022/12/23 11:26:06;;;;;;;;;1.00;0.00;;;;;14.08;100.00;99780.75;4951200;28;45292;-93
2022/12/23 11:28:58;;;;;;;;;0.00;0.00;;;;;13.23;100.00;99638.59;4954636;28;45296;-94
2022/12/23 11:31:27;;;;;;;;;0.00;0.00;;;;;13.24;100.00;99633.22;4914785;28;45356;-94
2022/12/23 11:34:13;;;;;;;;;0.00;0.00;;;;;13.96;100.00;99748.50;4951949;28;47229;-91
2022/12/23 11:36:41;;;;;;;;;0.00;0.00;;;;;13.10;100.00;99593.19;4966368;28;46027;-94
2022/12/23 11:39:24;;;;;;;;;0.00;0.00;;;;;14.45;100.00;99821.53;4955953;28;45442;-93
2022/12/23 11:41:54;;;;;;;;;0.00;0.00;;;;;13.55;100.00;99660.16;4959840;28;44941;-95
2022/12/23 11:44:41;;;;;;;;;0.00;0.00;;;;;14.54;100.00;99807.78;4954624;28;46944;-92
2022/12/23 11:47:28;;;;;;;;;0.25;0.25;;;;;14.20;100.00;99783.69;4957514;28;46077;-94
2022/12/23 11:49:59;;;;;;;;;0.75;0.00;;;;;13.67;100.00;99662.25;4964240;28;45313;-93
2022/12/23 11:52:30;;;;;;;;;0.00;0.00;;;;;13.98;100.00;99688.22;4970777;28;45227;-93
2022/12/23 11:55:00;;;;;;;;;0.00;0.00;;;;;13.48;100.00;99595.88;4954609;28;46548;-93
2022/12/23 11:57:45;;;;;;;;;0.00;0.00;;;;;13.88;100.00;99673.66;4955354;28;44880;-92
2022/12/23 12:00:26;;;;;;;;;0.00;0.00;;;;;13.81;100.00;99648.31;4951605;28;45541;-92
2022/12/23 12:02:55;;;;;;;;;3.00;2.00;;;;;14.01;100.00;99672.13;4938255;28;45386;-92
2022/12/23 12:05:34;;;;;;;;;1.25;1.00;;;;;14.89;100.00;99805.22;4929531;28;47094;-92
2022/12/23 12:08:04;;;;;;;;;0.00;0.00;;;;;14.18;100.00;99683.69;4951011;28;45273;-92
2022/12/23 12:10:37;;;;;;;;;0.00;0.00;;;;;14.18;100.00;99681.03;4934909;28;45341;-93
2022/12/23 12:13:29;;;;;;;;;1.75;1.00;;;;;14.96;100.00;99781.84;4950039;28;45332;-94
2022/12/23 12:16:18;;;;;;;;;0.25;0.25;;;;;14.97;100.00;99796.84;4963360;28;48595;-93
2022/12/23 12:18:45;;;;;;;;;1.00;1.00;;;;;14.14;100.00;99653.78;4964491;28;45451;-93
2022/12/23 12:21:39;;;;;;;;;2.50;0.75;;;;;14.93;100.00;99801.47;4967405;28;45417;-92
2022/12/23 12:24:22;;;;;;;;;0.00;0.00;;;;;14.25;100.00;99694.91;4951153;28;45366;-93
2022/12/23 12:26:51;;;;;;;;;1.00;1.00;;;;;14.55;100.00;99730.59;4949903;28;46398;-90
2022/12/23 12:33:23;;;;;;;;;3.00;2.75;;;;;14.24;100.00;99658.63;4851296;29;45669;-92
2022/12/23 12:36:36;;;;;;;;;1.50;1.25;;;;;13.56;100.00;99537.97;4863965;29;45294;-92
2022/12/23 12:39:02;;;;;;;;;0.25;0.25;;;;;14.01;100.00;99610.16;4869778;29;47197;-92
2022/12/23 12:41:48;;;;;;;;;0.50;0.50;;;;;14.77;100.00;99707.41;4874666;29;45300;-90
2022/12/23 12:45:40;;;;;;;;;;;;;;;;;;;;;
2022/12/23 12:48:40;;;;;;;;;0.00;0.00;;;;;15.77;100.00;99812.22;4825517;29;67798;-91
2022/12/23 12:51:31;;;;;;;;;2.25;1.00;;;;;15.95;100.00;99804.19;4838175;29;46808;-94
2022/12/23 12:54:09;;;;;;;;;0.75;0.75;;;;;15.04;100.00;99671.38;4822148;29;45369;-90
2022/12/23 12:56:51;;;;;;;;;2.75;1.75;;;;;15.43;100.00;99734.09;4814313;29;45324;-91
2022/12/23 12:59:20;;;;;;;;;1.00;1.00;;;;;15.44;100.00;99756.25;4844275;29;45433;-91
2022/12/23 13:02:04;;;;;;;;;0.50;0.50;;;;;15.93;100.00;99811.41;4841112;29;48126;-92
2022/12/23 13:04:29;;;;;;;;;1.50;1.50;;;;;16.03;100.00;99820.63;4853665;29;45498;-93
2022/12/23 13:07:00;;;;;;;;;0.00;0.00;;;;;16.09;100.00;99811.44;4864231;29;45337;-93
2022/12/23 13:09:53;;;;;;;;;2.25;1.00;;;;;16.10;100.00;99813.16;4901043;29;45714;-92
2022/12/23 13:12:47;;;;;;;;;1.50;1.50;;;;;16.06;100.00;99825.78;4910202;29;48217;-92
2022/12/23 13:15:19;;;;;;;;;1.25;1.25;;;;;16.00;100.00;99834.09;4879710;29;45460;-90